Time;durP1;ratioP1;P1;durP2;ratioP2;P2;SDS_P1;SDS_P2;PMS_P1;PMS_P2;Temp;Humidity;BMP_temperature;BMP_pressure;BME280_temperature;BME280_humidity;BME280_pressure;Samples;Min_cycle;Max_cycle;Signal;HPM_P1;HPM_P2
2022/09/23 17:17:55;;;;;;;11.20;8.60;;;;;;;19.53;69.95;101467.28;6206749;22;1444654;-39
2022/09/23 17:20:20;;;;;;;11.60;8.45;;;;;;;19.57;69.78;101466.38;6178863;22;20115;-39
2022/09/23 17:22:45;;;;;;;12.30;9.20;;;;;;;19.66;69.57;101460.06;6152108;23;20107;-39
2022/09/23 17:25:11;;;;;;;12.25;9.00;;;;;;;19.71;69.00;101463.50;6153552;23;20017;-40
2022/09/23 17:27:36;;;;;;;11.48;9.02;;;;;;;19.62;69.43;101463.66;6156359;23;20016;-40
2022/09/23 17:30:04;;;;;;;12.70;8.45;;;;;;;19.68;69.23;101456.50;6158966;23;20009;-40
2022/09/23 17:32:29;;;;;;;13.15;9.15;;;;;;;19.62;69.37;101461.00;6148258;23;20094;-39
2022/09/23 17:34:55;;;;;;;12.88;8.48;;;;;;;19.63;69.30;101463.63;6155648;23;20015;-39
2022/09/23 17:37:20;;;;;;;13.93;9.82;;;;;;;19.56;69.53;101461.09;6154300;23;20055;-40
2022/09/23 17:39:45;;;;;;;15.77;10.00;;;;;;;19.57;69.80;101452.28;6157642;23;20025;-38
2022/09/23 17:42:11;;;;;;;15.88;10.63;;;;;;;19.55;70.03;101451.41;6157641;23;20520;-40
2022/09/23 17:44:36;;;;;;;14.27;10.35;;;;;;;19.55;69.96;101452.28;6151805;23;20021;-40
2022/09/23 17:47:05;;;;;;;13.55;9.82;;;;;;;19.44;70.19;101455.06;6157080;23;20141;-39
2022/09/23 17:49:33;;;;;;;18.60;11.63;;;;;;;19.34;71.01;101456.06;6143979;23;20009;-39
2022/09/23 17:52:03;;;;;;;16.30;12.38;;;;;;;19.31;71.08;101449.94;6160798;23;20387;-39
2022/09/23 17:54:30;;;;;;;17.38;12.45;;;;;;;19.39;70.88;101453.38;6156337;23;20005;-39
2022/09/23 17:56:56;;;;;;;16.42;11.82;;;;;;;19.44;70.87;101449.78;6155190;23;20016;-40
2022/09/23 17:59:22;;;;;;;15.98;12.27;;;;;;;19.51;70.75;101447.94;6159413;23;20005;-39
2022/09/23 18:01:47;;;;;;;15.32;11.60;;;;;;;19.55;70.38;101446.13;6154671;23;20009;-38
2022/09/23 18:04:12;;;;;;;16.05;12.52;;;;;;;19.52;70.36;101448.81;6158831;23;20336;-39
2022/09/23 18:06:38;;;;;;;18.25;13.32;;;;;;;19.53;70.48;101443.50;6150054;23;20052;-39
2022/09/23 18:09:06;;;;;;;18.67;13.38;;;;;;;19.48;70.67;101450.63;6157047;23;20009;-40
2022/09/23 18:11:34;;;;;;;15.63;12.10;;;;;;;19.61;70.18;101446.03;6157822;23;20016;-39
2022/09/23 18:14:06;;;;;;;16.55;12.20;;;;;;;19.60;70.02;101446.91;6137352;23;20329;-39
2022/09/23 18:16:37;;;;;;;16.40;12.20;;;;;;;19.65;69.73;101442.44;6125672;23;20009;-39
2022/09/23 18:19:03;;;;;;;14.93;12.00;;;;;;;19.63;69.98;101438.97;6123878;23;20133;-38
2022/09/23 18:21:34;;;;;;;19.08;14.38;;;;;;;19.56;70.23;101445.22;6131403;23;20006;-40
2022/09/23 18:24:00;;;;;;;23.13;15.63;;;;;;;19.63;70.24;101449.53;6101219;23;20079;-39
2022/09/23 18:26:26;;;;;;;23.05;16.85;;;;;;;19.68;70.52;101445.06;6122825;23;20059;-40
2022/09/23 18:28:55;;;;;;;24.52;17.13;;;;;;;19.66;70.56;101453.00;6129365;23;20009;-40
2022/09/23 18:31:22;;;;;;;28.00;18.20;;;;;;;19.26;72.35;101465.88;6127546;23;20032;-39
2022/09/23 18:33:51;;;;;;;20.08;14.32;;;;;;;19.02;71.32;101460.91;6130729;23;20055;-38
2022/09/23 18:36:17;;;;;;;20.08;13.98;;;;;;;19.04;70.83;101462.59;6130546;23;20064;-52
2022/09/23 18:38:42;;;;;;;21.15;13.65;;;;;;;19.04;70.33;101469.66;6120267;23;20010;-53
2022/09/23 18:41:09;;;;;;;17.15;11.80;;;;;;;18.88;70.03;101466.34;6129642;23;20009;-53
2022/09/23 18:43:35;;;;;;;17.08;11.85;;;;;;;19.02;69.65;101471.47;6125413;23;20005;-51
2022/09/23 18:46:03;;;;;;;18.85;11.95;;;;;;;18.72;70.12;101467.41;6130710;23;20009;-53
2022/09/23 18:51:16;;;;;;;17.30;12.00;;;;;;;18.64;70.69;101474.53;6129802;23;20020;-38
2022/09/23 18:53:42;;;;;;;17.77;11.50;;;;;;;18.61;70.84;101471.91;6132425;23;20437;-38
2022/09/23 18:56:10;;;;;;;14.88;10.23;;;;;;;18.56;70.56;101473.72;6128663;23;20021;-37
2022/09/23 18:58:36;;;;;;;16.60;10.43;;;;;;;18.69;70.27;101474.47;6128333;23;20772;-41
2022/09/23 19:01:07;;;;;;;15.68;10.98;;;;;;;18.45;70.92;101467.63;6129675;23;20021;-39
2022/09/23 19:03:35;;;;;;;15.95;10.45;;;;;;;18.11;72.23;101477.63;6131703;23;20440;-41
2022/09/23 19:06:09;;;;;;;15.68;9.80;;;;;;;18.42;71.01;101476.44;6131259;23;20012;-39
2022/09/23 19:08:36;;;;;;;16.33;10.77;;;;;;;18.40;70.79;101478.25;6123653;23;20005;-45
2022/09/23 19:11:04;;;;;;;14.40;9.68;;;;;;;18.21;71.39;101474.00;6133178;23;20011;-44
2022/09/23 19:13:30;;;;;;;13.20;9.23;;;;;;;18.31;71.21;101474.78;6129525;23;20015;-44
2022/09/23 19:16:03;;;;;;;15.65;9.63;;;;;;;18.29;71.04;101469.56;6135371;23;20014;-47
2022/09/23 19:18:30;;;;;;;13.10;9.57;;;;;;;18.38;70.97;101465.94;6130138;23;20010;-46
2022/09/23 19:20:58;;;;;;;12.50;8.63;;;;;;;18.39;70.61;101465.94;6128026;23;20009;-44
2022/09/23 19:23:24;;;;;;;12.65;8.38;;;;;;;18.18;71.07;101466.09;6131091;23;20009;-43
2022/09/23 19:25:50;;;;;;;11.23;8.45;;;;;;;18.17;71.13;101465.25;6127899;23;20014;-42
2022/09/23 19:28:15;;;;;;;10.70;7.75;;;;;;;18.20;70.92;101462.56;6124261;23;20043;-40
2022/09/23 19:30:40;;;;;;;12.32;7.55;;;;;;;18.34;70.29;101458.94;6124882;23;20068;-42
2022/09/23 19:33:07;;;;;;;13.82;7.32;;;;;;;18.31;70.69;101458.97;6135018;23;20723;-41
2022/09/23 19:35:34;;;;;;;11.95;7.28;;;;;;;18.11;70.77;101465.28;6132782;23;20329;-41
2022/09/23 19:38:00;;;;;;;12.07;7.20;;;;;;;18.13;71.04;101458.22;6126625;23;20035;-42
2022/09/23 19:40:26;;;;;;;10.55;6.72;;;;;;;18.21;70.40;101455.53;6129307;23;20036;-44
2022/09/23 19:42:53;;;;;;;11.57;7.13;;;;;;;18.15;70.55;101448.56;6127319;23;20014;-42
2022/09/23 19:45:20;;;;;;;9.65;7.07;;;;;;;18.25;70.24;101454.63;6131825;23;20013;-40
2022/09/23 19:47:46;;;;;;;11.60;6.85;;;;;;;18.15;70.84;101459.09;6131381;23;20040;-42
2022/09/23 19:50:12;;;;;;;9.48;6.68;;;;;;;18.22;70.47;101452.00;6127429;23;20096;-41
2022/09/23 19:52:37;;;;;;;10.57;6.90;;;;;;;18.03;70.94;101453.94;6129448;23;20027;-42
2022/09/23 19:55:03;;;;;;;10.48;6.90;;;;;;;18.19;70.59;101449.38;6126509;23;20024;-41
2022/09/23 19:57:32;;;;;;;10.40;6.70;;;;;;;17.97;71.09;101450.47;6131659;23;20020;-42
2022/09/23 19:59:57;;;;;;;7.25;5.78;;;;;;;18.13;70.73;101441.53;6132996;23;20216;-42
2022/09/23 20:02:23;;;;;;;8.93;6.18;;;;;;;18.03;70.59;101446.00;6128961;23;20013;-41
2022/09/23 20:04:50;;;;;;;9.35;6.00;;;;;;;18.14;70.52;101448.56;6127662;23;20005;-41
2022/09/23 20:07:15;;;;;;;8.45;6.00;;;;;;;18.06;70.46;101445.09;6127024;23;20029;-42
2022/09/23 20:09:41;;;;;;;6.65;5.38;;;;;;;18.08;70.46;101440.69;6130557;23;20144;-40
2022/09/23 20:12:06;;;;;;;10.02;5.65;;;;;;;18.10;70.37;101434.53;6134744;23;20076;-42
2022/09/23 20:14:31;;;;;;;7.30;5.38;;;;;;;18.11;70.19;101424.84;6124833;23;20014;-39
2022/09/23 20:16:58;;;;;;;6.55;5.22;;;;;;;18.13;69.92;101428.34;6133794;23;20080;-42
2022/09/23 20:19:24;;;;;;;8.18;5.93;;;;;;;18.13;69.92;101436.25;6139093;23;20021;-41
2022/09/23 20:22:23;;;;;;;7.85;5.68;;;;;;;18.08;69.84;101433.66;6131219;23;20032;-42
2022/09/23 20:24:35;;;;;;;8.05;5.97;;;;;;;18.04;69.86;101433.69;6123394;23;20088;-41
2022/09/23 20:27:09;;;;;;;7.43;5.60;;;;;;;18.14;69.90;101432.72;6132105;23;20017;-41
2022/09/23 20:29:35;;;;;;;7.50;5.75;;;;;;;18.12;69.91;101429.22;6133542;23;20370;-40
2022/09/23 20:32:00;;;;;;;8.73;5.95;;;;;;;18.01;70.44;101436.34;6128843;23;20041;-41
2022/09/23 20:34:28;;;;;;;9.73;6.25;;;;;;;18.09;70.18;101431.91;6127920;23;20040;-41
2022/09/23 20:36:54;;;;;;;8.63;5.90;;;;;;;18.20;69.77;101430.03;6127048;23;20015;-42
2022/09/23 20:39:20;;;;;;;9.13;6.30;;;;;;;18.08;70.26;101425.75;6129715;23;20005;-40
2022/09/23 20:41:46;;;;;;;9.13;6.43;;;;;;;18.08;70.30;101431.00;6133564;23;20458;-40
2022/09/23 20:44:12;;;;;;;8.23;6.22;;;;;;;18.06;70.20;101427.50;6146137;23;20017;-42
2022/09/23 20:46:39;;;;;;;9.20;6.65;;;;;;;17.95;70.63;101431.13;6158332;23;20067;-41
2022/09/23 20:49:06;;;;;;;9.32;6.43;;;;;;;18.10;70.38;101429.25;6144631;23;20017;-39
2022/09/23 20:51:32;;;;;;;8.38;6.65;;;;;;;18.09;70.48;101423.97;6161179;23;20009;-42
2022/09/23 20:53:58;;;;;;;10.30;7.30;;;;;;;18.01;70.76;101429.31;6158559;23;20015;-42
2022/09/23 20:56:24;;;;;;;10.32;7.15;;;;;;;18.18;70.27;101422.13;6156091;23;20009;-39
2022/09/23 20:58:51;;;;;;;10.95;8.30;;;;;;;17.97;70.80;101426.72;6157309;23;20005;-40
2022/09/23 21:01:18;;;;;;;11.48;8.35;;;;;;;18.01;70.84;101421.41;6159621;23;20443;-40
2022/09/23 21:03:46;;;;;;;12.13;8.27;;;;;;;18.11;70.78;101419.56;6161614;23;20490;-41
2022/09/23 21:06:13;;;;;;;14.20;9.35;;;;;;;18.08;70.82;101420.47;6162333;23;20005;-40
2022/09/23 21:08:40;;;;;;;13.68;9.45;;;;;;;18.08;71.01;101422.22;6151640;23;20036;-40
2022/09/23 21:11:09;;;;;;;15.05;9.73;;;;;;;18.15;70.73;101416.88;6164198;23;20056;-41
2022/09/23 21:13:35;;;;;;;16.10;11.20;;;;;;;18.07;70.98;101415.19;6157981;23;20452;-40
2022/09/23 21:16:02;;;;;;;16.25;11.52;;;;;;;18.08;71.06;101411.66;6158382;23;20693;-40
2022/09/23 21:18:29;;;;;;;19.35;12.25;;;;;;;17.98;71.46;101410.88;6155063;23;20032;-41
2022/09/23 21:20:58;;;;;;;18.20;11.65;;;;;;;18.09;71.02;101411.66;6155980;23;20009;-40
2022/09/23 21:23:28;;;;;;;18.85;12.45;;;;;;;18.13;71.28;101410.72;6161512;23;20016;-40
2022/09/23 21:26:09;;;;;;;20.63;13.00;;;;;;;18.11;71.34;101412.50;6158589;23;20012;-40
2022/09/23 21:28:43;;;;;;;22.02;13.88;;;;;;;18.02;71.58;101402.03;6152673;23;20752;-40
2022/09/23 21:31:12;;;;;;;22.40;13.95;;;;;;;18.11;71.14;101406.38;6157865;23;20040;-41
2022/09/23 21:33:37;;;;;;;22.20;13.85;;;;;;;18.18;71.17;101403.66;6162024;23;20005;-40
2022/09/23 21:36:04;;;;;;;21.90;14.00;;;;;;;18.23;70.93;101393.06;6160352;23;20064;-41
2022/09/23 21:38:34;;;;;;;24.27;14.90;;;;;;;18.19;71.01;101401.88;6153764;23;20117;-40
2022/09/23 21:41:02;;;;;;;21.10;13.85;;;;;;;18.28;70.96;101393.91;6164829;23;20063;-40
2022/09/23 21:43:32;;;;;;;21.73;13.88;;;;;;;18.26;70.79;101390.38;6160965;23;20124;-39
2022/09/23 21:45:59;;;;;;;24.90;15.98;;;;;;;18.21;71.11;101389.56;6157931;23;20419;-40
2022/09/23 21:48:26;;;;;;;25.55;15.80;;;;;;;18.06;71.32;101387.94;6157470;23;20009;-41
2022/09/23 21:51:13;;;;;;;25.63;15.65;;;;;;;18.18;71.17;101382.53;6154770;23;20338;-38
2022/09/23 21:53:39;;;;;;;23.58;14.52;;;;;;;18.18;71.07;101390.44;6160304;23;20016;-40
2022/09/23 21:56:10;;;;;;;26.45;16.73;;;;;;;18.17;71.32;101380.81;6158398;23;20075;-41
2022/09/23 21:58:37;;;;;;;26.55;16.30;;;;;;;18.20;71.24;101387.81;6158072;23;20100;-41
2022/09/23 22:01:07;;;;;;;28.30;17.13;;;;;;;18.10;71.53;101388.78;6161636;23;20012;-39
2022/09/23 22:03:33;;;;;;;26.73;16.42;;;;;;;18.06;72.03;101379.13;6162295;23;20695;-40
2022/09/23 22:06:04;;;;;;;29.90;16.80;;;;;;;18.09;71.70;101382.63;6161995;23;20001;-40
2022/09/23 22:08:33;;;;;;;26.83;16.67;;;;;;;18.12;71.84;101382.59;6154399;23;20039;-40
2022/09/23 22:11:01;;;;;;;28.45;17.20;;;;;;;18.20;71.39;101370.22;6165955;23;20005;-40
2022/09/23 22:13:26;;;;;;;25.35;15.18;;;;;;;18.21;71.46;101371.97;6157799;23;20025;-41
2022/09/23 22:15:52;;;;;;;25.80;16.83;;;;;;;18.21;71.57;101371.97;6160057;23;20494;-42
2022/09/23 22:18:18;;;;;;;25.75;16.65;;;;;;;18.17;71.64;101370.25;6161662;23;20012;-40
2022/09/23 22:20:44;;;;;;;24.83;15.40;;;;;;;18.23;71.44;101371.94;6152344;23;20041;-40
2022/09/23 22:23:09;;;;;;;29.23;17.10;;;;;;;17.90;72.11;101374.91;6164271;23;20013;-40
2022/09/23 22:25:34;;;;;;;30.73;16.70;;;;;;;17.97;72.58;101368.69;6159459;23;20044;-39
2022/09/23 22:33:42;;;;;;;24.70;14.40;;;;;;;18.05;72.13;101377.41;6163120;23;20068;-39
2022/09/23 22:36:10;;;;;;;27.38;15.50;;;;;;;18.08;72.10;101380.00;6162748;23;20009;-39
2022/09/23 22:38:37;;;;;;;24.45;15.70;;;;;;;18.15;71.58;101366.75;6154189;23;20009;-41
2022/09/23 22:41:02;;;;;;;23.58;14.32;;;;;;;18.17;71.31;101372.91;6162129;23;20424;-41
2022/09/23 22:43:28;;;;;;;21.08;13.98;;;;;;;18.14;71.48;101372.03;6160445;23;20015;-39
2022/09/23 22:45:53;;;;;;;26.38;15.27;;;;;;;17.96;72.00;101362.53;6187042;23;20820;-40
2022/09/23 22:48:19;;;;;;;22.40;13.60;;;;;;;18.16;71.39;101367.63;6162539;23;20017;-41
2022/09/23 22:50:45;;;;;;;21.55;13.75;;;;;;;18.14;71.64;101364.13;6152406;23;20522;-39
2022/09/23 22:53:11;;;;;;;20.60;13.48;;;;;;;18.14;71.52;101359.72;6163314;23;20371;-39
2022/09/23 22:55:36;;;;;;;21.60;14.25;;;;;;;17.97;72.34;101366.03;6157172;23;20063;-38
2022/09/23 22:58:02;;;;;;;22.92;14.65;;;;;;;17.81;72.65;101365.28;6161411;23;20387;-40
2022/09/23 23:00:28;;;;;;;21.30;13.40;;;;;;;18.09;71.99;101356.25;6158130;23;19997;-40
2022/09/23 23:02:56;;;;;;;24.83;14.23;;;;;;;17.91;72.64;101359.06;6159063;23;20048;-39
2022/09/23 23:05:22;;;;;;;23.35;14.30;;;;;;;18.01;72.34;101352.81;6161882;23;20009;-39
2022/09/23 23:07:47;;;;;;;20.77;13.52;;;;;;;18.11;72.05;101357.09;6158754;23;20462;-40
2022/09/23 23:10:14;;;;;;;19.52;13.40;;;;;;;17.86;72.29;101350.31;6161900;23;20455;-40
2022/09/23 23:12:40;;;;;;;19.77;13.20;;;;;;;18.02;72.06;101348.41;6153232;23;20009;-39
2022/09/23 23:15:06;;;;;;;19.70;12.95;;;;;;;18.08;71.83;101346.56;6162895;23;20016;-39
2022/09/23 23:17:31;;;;;;;21.75;13.13;;;;;;;18.01;71.96;101349.28;6163022;23;20009;-40
2022/09/23 23:19:57;;;;;;;19.67;12.68;;;;;;;18.06;71.73;101344.84;6155883;23;20017;-40
2022/09/23 23:22:27;;;;;;;19.95;12.85;;;;;;;18.04;71.80;101341.34;6162931;23;20005;-40
2022/09/23 23:24:53;;;;;;;17.30;11.63;;;;;;;18.01;72.03;101342.25;6157612;23;20100;-40
2022/09/23 23:27:19;;;;;;;17.52;12.70;;;;;;;17.76;72.28;101343.34;6163202;23;20084;-41
2022/09/23 23:29:45;;;;;;;22.17;13.18;;;;;;;17.90;72.07;101338.84;6163603;23;20005;-39
2022/09/23 23:32:10;;;;;;;17.73;12.57;;;;;;;18.00;71.60;101344.88;6160099;23;20009;-40
2022/09/23 23:34:36;;;;;;;17.35;12.15;;;;;;;17.89;71.89;101342.38;6160487;23;20577;-42
2022/09/23 23:37:01;;;;;;;18.30;12.70;;;;;;;17.93;71.95;101344.06;6157121;23;20021;-40
2022/09/23 23:39:27;;;;;;;17.50;12.25;;;;;;;18.06;71.35;101335.16;6161525;23;20340;-41
2022/09/23 23:41:54;;;;;;;18.73;12.30;;;;;;;18.03;71.17;101337.84;6161471;23;20001;-39
2022/09/23 23:44:20;;;;;;;18.90;12.82;;;;;;;18.05;71.23;101335.19;6159990;23;20009;-39
2022/09/23 23:46:45;;;;;;;18.52;12.43;;;;;;;17.62;72.80;101332.06;6156760;23;20013;-41
2022/09/23 23:49:11;;;;;;;18.48;12.85;;;;;;;17.79;72.04;101333.66;6156378;23;20458;-39
2022/09/23 23:51:36;;;;;;;17.38;12.38;;;;;;;17.95;71.74;101338.78;6161310;23;21004;-41
2022/09/23 23:54:01;;;;;;;18.20;12.32;;;;;;;18.03;71.19;101337.84;6162845;23;20009;-39
2022/09/23 23:56:29;;;;;;;19.08;13.23;;;;;;;17.89;71.86;101325.66;6156719;23;20008;-39
2022/09/23 23:58:56;;;;;;;18.17;13.07;;;;;;;18.00;71.52;101331.69;6161443;23;20012;-39
